createdAt,value
2019-05-17T00:00:58.329Z,95322.10
2019-05-17T00:03:27.065Z,95319.06
2019-05-17T00:05:54.451Z,95319.23
2019-05-17T00:08:33.712Z,95318.59
2019-05-17T00:10:52.186Z,95317.12
2019-05-17T00:13:19.481Z,95314.98
2019-05-17T00:15:47.398Z,95308.33
2019-05-17T00:18:16.968Z,95313.84
2019-05-17T00:20:43.494Z,95312.58
2019-05-17T00:23:10.881Z,95315.00
2019-05-17T00:25:37.934Z,95311.27
2019-05-17T00:28:07.249Z,95314.99
2019-05-17T00:30:33.968Z,95312.23
2019-05-17T00:33:01.006Z,95306.39
2019-05-17T00:35:28.130Z,95309.63
2019-05-17T00:37:57.056Z,95304.59
2019-05-17T00:40:24.191Z,95303.78
2019-05-17T00:42:51.546Z,95302.64
2019-05-17T00:45:18.929Z,95294.37
2019-05-17T00:47:46.965Z,95295.66
2019-05-17T00:50:16.777Z,95290.46
2019-05-17T00:52:43.259Z,95288.03
2019-05-17T00:55:10.313Z,95288.20
2019-05-17T00:57:37.350Z,95284.14
2019-05-17T01:00:04.642Z,95289.02
2019-05-17T01:02:31.740Z,95285.28
2019-05-17T01:04:59.038Z,95282.67
2019-05-17T01:07:26.871Z,95287.70
2019-05-17T01:09:56.560Z,95280.56
2019-05-17T01:12:23.690Z,95284.45
2019-05-17T01:14:51.967Z,95283.48
2019-05-17T01:17:19.006Z,95281.86
2019-05-17T01:19:47.172Z,95282.83
2019-05-17T01:22:16.749Z,95278.44
2019-05-17T01:24:43.474Z,95278.91
2019-05-17T01:27:10.522Z,95272.58
2019-05-17T01:29:37.808Z,95270.30
2019-05-17T01:32:06.845Z,95268.50
2019-05-17T01:34:34.174Z,95264.13
2019-05-17T01:37:01.474Z,95261.53
2019-05-17T01:39:28.511Z,95259.73
2019-05-17T01:41:57.372Z,95261.03
2019-05-17T01:44:27.107Z,95253.09
2019-05-17T01:46:53.453Z,95252.92
2019-05-17T01:49:20.492Z,95251.48
2019-05-17T01:51:47.613Z,95249.86
2019-05-17T01:54:14.645Z,95250.17
2019-05-17T01:56:41.943Z,95244.34
2019-05-17T01:59:08.982Z,95246.43
2019-05-17T02:01:37.103Z,95249.02
2019-05-17T02:04:06.497Z,95241.91
2019-05-17T02:06:33.395Z,95245.63
2019-05-17T02:09:00.434Z,95246.92
2019-05-17T02:11:29.453Z,95243.20
2019-05-17T02:13:56.490Z,95241.75
2019-05-17T02:16:23.784Z,95245.15
2019-05-17T02:18:50.823Z,95241.59
2019-05-17T02:21:17.891Z,95237.86
2019-05-17T02:23:46.923Z,95241.09
2019-05-17T02:26:14.135Z,95237.84
2019-05-17T02:28:41.502Z,95238.02
2019-05-17T02:31:08.497Z,95234.77
2019-05-17T02:33:35.539Z,95234.59
2019-05-17T02:36:03.014Z,95236.03
2019-05-17T02:38:33.386Z,95237.14
2019-05-17T02:41:03.318Z,95237.13
2019-05-17T02:43:32.719Z,95233.72
2019-05-17T02:45:58.100Z,95239.05
2019-05-17T02:48:25.153Z,95235.33
2019-05-17T02:50:53.187Z,95236.78
2019-05-17T02:53:22.999Z,95234.03
2019-05-17T02:55:49.513Z,95237.45
2019-05-17T02:58:16.872Z,95235.53
2019-05-17T03:00:44.564Z,95234.43
2019-05-17T03:03:13.439Z,95235.44
2019-05-17T03:05:43.042Z,95228.79
2019-05-17T03:08:12.138Z,95228.98
2019-05-17T03:10:38.103Z,95223.66
2019-05-17T03:13:05.153Z,95227.72
2019-05-17T03:15:32.616Z,95224.50
2019-05-17T03:18:03.261Z,95219.97
2019-05-17T03:20:28.917Z,95219.31
2019-05-17T03:22:55.973Z,95217.69
2019-05-17T03:25:23.861Z,95226.28
2019-05-17T03:27:53.650Z,95217.05
2019-05-17T03:30:25.201Z,95222.55
2019-05-17T03:32:49.374Z,95217.70
2019-05-17T03:35:18.381Z,95218.34
2019-05-17T03:37:45.918Z,95219.32
2019-05-17T03:40:24.934Z,95219.48
2019-05-17T03:42:42.856Z,95222.23
2019-05-17T03:45:13.796Z,95219.47
2019-05-17T03:47:39.278Z,95220.11
2019-05-17T03:50:06.603Z,95221.57
2019-05-17T03:52:33.652Z,95224.97
2019-05-17T03:55:03.934Z,95225.13
2019-05-17T03:57:32.394Z,95224.64
2019-05-17T03:59:59.182Z,95222.72
2019-05-17T04:02:26.260Z,95218.20
2019-05-17T04:04:53.338Z,95216.40
2019-05-17T04:07:23.462Z,95220.47
2019-05-17T04:09:52.973Z,95212.63
2019-05-17T04:12:23.662Z,95228.74
2019-05-17T04:14:53.638Z,95227.08
2019-05-17T04:17:26.160Z,95219.39
2019-05-17T04:19:53.655Z,95214.19
2019-05-17T04:22:23.603Z,95216.37
2019-05-17T04:24:52.327Z,95216.07
2019-05-17T04:27:18.218Z,95215.85
2019-05-17T04:29:45.312Z,95214.17
2019-05-17T04:32:26.039Z,95214.58
2019-05-17T04:34:53.100Z,95216.53
2019-05-17T04:37:22.812Z,95223.05
2019-05-17T04:39:52.290Z,95220.41
2019-05-17T04:42:18.211Z,95224.61
2019-05-17T04:44:45.577Z,95223.59
2019-05-17T04:47:13.462Z,95219.70
2019-05-17T04:49:44.085Z,95219.12
2019-05-17T04:52:13.519Z,95221.20
2019-05-17T04:54:38.847Z,95220.56
2019-05-17T04:57:06.239Z,95218.25
2019-05-17T04:59:34.061Z,95222.02
2019-05-17T05:02:02.981Z,95220.63
2019-05-17T05:04:33.111Z,95222.60
2019-05-17T05:06:59.042Z,95219.12
2019-05-17T05:09:26.065Z,95216.02
2019-05-17T05:12:01.348Z,95222.97
2019-05-17T05:14:23.328Z,95221.58
2019-05-17T05:16:52.814Z,95222.95
2019-05-17T05:19:22.222Z,95227.36
2019-05-17T05:21:48.466Z,95227.95
2019-05-17T05:24:15.518Z,95223.65
2019-05-17T05:26:42.892Z,95220.21
2019-05-17T05:29:12.511Z,95216.39
2019-05-17T05:31:38.723Z,95213.63
2019-05-17T05:34:06.098Z,95218.56
2019-05-17T05:36:33.439Z,95215.41
2019-05-17T05:39:02.358Z,95208.20
2019-05-17T05:41:31.861Z,95211.11
2019-05-17T05:44:01.639Z,95206.27
2019-05-17T05:46:27.985Z,95208.20
2019-05-17T05:48:55.051Z,95213.03
2019-05-17T05:51:22.101Z,95208.48
2019-05-17T05:53:49.156Z,95203.66
2019-05-17T05:56:16.192Z,95203.12
2019-05-17T05:58:43.544Z,95203.38
2019-05-17T06:01:12.775Z,95209.69
2019-05-17T06:03:41.402Z,95215.16
2019-05-17T06:06:08.887Z,95208.70
2019-05-17T06:08:35.931Z,95206.01
2019-05-17T06:11:02.999Z,95206.26
2019-05-17T06:13:32.362Z,95198.31
2019-05-17T06:15:59.430Z,95202.40
2019-05-17T06:18:26.475Z,95205.78
2019-05-17T06:20:53.815Z,95201.67
2019-05-17T06:23:23.251Z,95199.72
2019-05-17T06:25:52.232Z,95192.00
2019-05-17T06:28:19.365Z,95192.86
2019-05-17T06:30:46.418Z,95185.72
2019-05-17T06:33:26.949Z,95197.46
2019-05-17T06:35:42.861Z,95193.69
2019-05-17T06:38:12.124Z,95196.86
2019-05-17T06:40:38.670Z,95194.13
2019-05-17T06:43:05.706Z,95193.08
2019-05-17T06:45:32.765Z,95192.19
2019-05-17T06:48:02.535Z,95188.20
2019-05-17T06:50:32.575Z,95187.63
2019-05-17T06:52:59.263Z,95192.52
2019-05-17T06:55:27.649Z,95192.97
2019-05-17T06:57:55.001Z,95187.00
2019-05-17T07:00:23.983Z,95190.21
2019-05-17T07:02:51.452Z,95184.02
2019-05-17T07:05:20.031Z,95174.84
2019-05-17T07:07:49.861Z,95176.98
2019-05-17T07:10:19.475Z,95177.50
2019-05-17T07:12:57.728Z,95185.61
2019-05-17T07:15:15.109Z,95176.63
2019-05-17T07:17:42.442Z,95171.09
2019-05-17T07:20:10.384Z,95170.66
2019-05-17T07:22:40.463Z,95164.44
2019-05-17T07:25:06.861Z,95165.11
2019-05-17T07:27:41.393Z,95165.48
2019-05-17T07:30:02.660Z,95155.33
2019-05-17T07:32:30.254Z,95154.09
2019-05-17T07:34:59.835Z,95156.08
2019-05-17T07:37:26.420Z,95156.48
2019-05-17T07:40:01.127Z,95162.85
2019-05-17T07:42:22.586Z,95163.71
2019-05-17T07:44:49.814Z,95162.39
2019-05-17T07:47:20.279Z,95152.58
2019-05-17T07:49:49.350Z,95152.34
2019-05-17T07:52:16.134Z,95145.87
2019-05-17T07:54:43.519Z,95140.35
2019-05-17T07:57:10.576Z,95145.50
2019-05-17T07:59:39.755Z,95123.07
2019-05-17T08:02:07.022Z,95129.66
2019-05-17T08:04:34.389Z,95136.70
2019-05-17T08:07:01.448Z,95134.68
2019-05-17T08:09:30.063Z,95126.56
2019-05-17T08:11:59.608Z,95128.59
2019-05-17T08:14:30.270Z,95116.44
2019-05-17T08:16:55.346Z,95122.95
2019-05-17T08:19:22.394Z,95115.67
2019-05-17T08:21:50.233Z,95113.21
2019-05-17T08:24:19.584Z,95115.76
2019-05-17T08:26:46.736Z,95116.23
2019-05-17T08:29:14.072Z,95115.19
2019-05-17T08:31:41.120Z,95102.88
2019-05-17T08:34:10.236Z,95112.08
2019-05-17T08:36:37.278Z,95106.80
2019-05-17T08:39:04.338Z,95107.20
2019-05-17T08:41:32.123Z,95096.38
2019-05-17T08:44:00.690Z,95096.91
2019-05-17T08:46:30.544Z,95098.27
2019-05-17T08:48:57.194Z,95091.77
2019-05-17T08:51:24.593Z,95095.26
2019-05-17T08:53:51.939Z,95097.28
2019-05-17T08:56:20.540Z,95087.69
2019-05-17T08:58:49.807Z,95085.37
2019-05-17T09:01:19.398Z,95092.59
2019-05-17T09:03:45.636Z,95092.73
2019-05-17T09:06:12.860Z,95087.20
2019-05-17T09:08:40.555Z,95079.44
2019-05-17T09:11:09.894Z,95086.63
2019-05-17T09:13:37.026Z,95080.23
2019-05-17T09:16:04.073Z,95073.06
2019-05-17T09:18:31.529Z,95082.12
2019-05-17T09:21:00.325Z,95081.84
2019-05-17T09:23:30.192Z,95071.45
2019-05-17T09:25:56.400Z,95064.81
2019-05-17T09:28:23.801Z,95062.45
2019-05-17T09:30:51.157Z,95063.77
2019-05-17T09:33:19.252Z,95063.23
2019-05-17T09:35:46.702Z,95057.73
2019-05-17T09:38:14.005Z,95056.45
2019-05-17T09:40:42.113Z,95056.66
2019-05-17T09:43:10.256Z,95060.60
2019-05-17T09:45:40.316Z,95054.75
2019-05-17T09:48:09.978Z,95055.66
2019-05-17T09:50:36.261Z,95055.28
2019-05-17T09:53:03.622Z,95049.80
2019-05-17T09:55:30.918Z,95034.23
2019-05-17T09:58:00.235Z,95045.36
2019-05-17T10:00:29.554Z,95042.16
2019-05-17T10:02:56.112Z,95036.91
2019-05-17T10:05:23.163Z,95045.29
2019-05-17T10:07:50.902Z,95037.83
2019-05-17T10:10:20.238Z,95035.30
2019-05-17T10:12:49.687Z,95034.52
2019-05-17T10:15:16.623Z,95038.34
2019-05-17T10:17:44.033Z,95031.94
2019-05-17T10:20:11.100Z,95030.33
2019-05-17T10:22:40.057Z,95028.27
2019-05-17T10:25:09.431Z,95028.55
2019-05-17T10:27:37.385Z,95024.76
2019-05-17T10:30:04.440Z,95030.75
2019-05-17T10:32:31.474Z,95019.70
2019-05-17T10:35:00.249Z,95016.50
2019-05-17T10:37:30.108Z,95020.08
2019-05-17T10:39:56.562Z,95017.38
2019-05-17T10:42:23.934Z,95017.17
2019-05-17T10:44:54.277Z,95023.31
2019-05-17T10:47:20.364Z,95010.07
2019-05-17T10:49:49.513Z,95005.83
2019-05-17T10:52:16.160Z,95012.47
2019-05-17T10:54:43.209Z,95013.02
2019-05-17T10:57:10.653Z,95010.09
2019-05-17T10:59:38.059Z,95010.27
2019-05-17T11:02:05.094Z,95015.80
2019-05-17T11:04:32.461Z,95011.44
2019-05-17T11:06:59.837Z,95004.50
2019-05-17T11:09:27.172Z,95002.66
2019-05-17T11:11:54.527Z,94993.69
2019-05-17T11:14:21.899Z,95000.20
2019-05-17T11:16:49.294Z,94988.16
2019-05-17T11:19:16.639Z,94990.25
2019-05-17T11:21:43.948Z,94982.80
2019-05-17T11:24:11.302Z,94988.20
2019-05-17T11:26:38.672Z,94984.70
2019-05-17T11:29:06.014Z,94992.84
2019-05-17T11:31:33.367Z,94979.31
2019-05-17T11:34:00.742Z,94988.41
2019-05-17T11:36:27.794Z,94983.73
2019-05-17T11:38:54.840Z,94977.19
2019-05-17T11:41:22.199Z,94979.81
2019-05-17T11:43:49.243Z,94980.02
2019-05-17T11:46:16.296Z,94971.52
2019-05-17T11:48:43.624Z,94976.30
2019-05-17T11:51:10.717Z,94970.45
2019-05-17T11:53:38.041Z,94977.17
2019-05-17T11:56:06.515Z,94973.92
2019-05-17T11:58:33.555Z,94979.59
2019-05-17T12:01:00.614Z,94972.48
2019-05-17T12:03:27.963Z,94965.97
2019-05-17T12:05:55.010Z,94963.41
2019-05-17T12:08:22.040Z,94963.02
2019-05-17T12:10:49.152Z,94950.57
2019-05-17T12:13:16.679Z,94960.81
2019-05-17T12:15:45.574Z,94959.05
2019-05-17T12:18:12.828Z,94954.89
2019-05-17T12:20:40.163Z,94946.47
2019-05-17T12:23:07.533Z,94959.03
2019-05-17T12:25:34.585Z,94947.64
2019-05-17T12:28:01.924Z,94951.81
2019-05-17T12:30:29.406Z,94950.70
2019-05-17T12:32:56.699Z,94947.68
2019-05-17T12:35:24.087Z,94955.16
2019-05-17T12:37:51.121Z,94949.55
2019-05-17T12:40:18.169Z,94950.45
2019-05-17T12:42:45.537Z,94949.20
2019-05-17T12:45:13.836Z,94948.71
2019-05-17T12:47:41.175Z,94945.31
2019-05-17T12:50:08.200Z,94951.50
2019-05-17T12:52:35.253Z,94942.77
2019-05-17T12:55:02.646Z,94942.25
2019-05-17T12:57:29.976Z,94938.51
2019-05-17T12:59:57.352Z,94941.72
2019-05-17T13:02:24.406Z,94941.97
2019-05-17T13:04:51.442Z,94936.91
2019-05-17T13:07:19.837Z,94935.09
2019-05-17T13:09:46.873Z,94932.41
2019-05-17T13:12:13.926Z,94943.52
2019-05-17T13:14:41.257Z,94936.29
2019-05-17T13:17:08.630Z,94936.53
2019-05-17T13:19:35.971Z,94931.89
2019-05-17T13:22:03.029Z,94928.06
2019-05-17T13:24:30.373Z,94930.52
2019-05-17T13:26:57.430Z,94927.63
2019-05-17T13:29:24.474Z,94925.62
2019-05-17T13:31:51.840Z,94930.17
2019-05-17T13:34:18.880Z,94921.22
2019-05-17T13:36:45.924Z,94915.39
2019-05-17T13:39:13.280Z,94916.47
2019-05-17T13:41:40.584Z,94919.38
2019-05-17T13:44:07.897Z,94920.16
2019-05-17T13:46:34.954Z,94906.38
2019-05-17T13:49:03.000Z,94915.16
2019-05-17T13:51:30.055Z,94904.00
2019-05-17T13:53:57.403Z,94904.50
2019-05-17T13:56:24.757Z,94906.91
2019-05-17T13:58:53.291Z,94900.80
2019-05-17T14:01:20.621Z,94899.73
2019-05-17T14:03:47.661Z,94895.22
2019-05-17T14:06:14.713Z,94900.53
2019-05-17T14:08:42.073Z,94898.91
2019-05-17T14:11:09.423Z,94889.02
2019-05-17T14:13:37.693Z,94894.34
2019-05-17T14:16:05.145Z,94893.53
2019-05-17T14:18:32.188Z,94890.94
2019-05-17T14:20:59.556Z,94888.80
2019-05-17T14:23:28.146Z,94893.53
2019-05-17T14:25:55.188Z,94892.47
2019-05-17T14:28:22.525Z,94899.09
2019-05-17T14:30:49.562Z,94900.07
2019-05-17T14:33:16.607Z,94899.27
2019-05-17T14:35:43.641Z,94892.87
2019-05-17T14:38:11.025Z,94894.98
2019-05-17T14:41:05.029Z,94894.19
2019-05-17T14:43:06.879Z,94901.58
2019-05-17T14:45:34.238Z,94890.66
2019-05-17T14:48:01.298Z,94897.72
2019-05-17T14:50:28.621Z,94894.33
2019-05-17T14:52:55.693Z,94891.42
2019-05-17T14:55:23.032Z,94886.87
2019-05-17T14:57:50.392Z,94887.45
2019-05-17T15:00:17.429Z,94888.27
2019-05-17T15:02:44.478Z,94889.84
2019-05-17T15:05:11.524Z,94891.70
2019-05-17T15:07:38.567Z,94888.70
2019-05-17T15:10:05.958Z,94886.56
2019-05-17T15:12:33.226Z,94883.88
2019-05-17T15:15:00.533Z,94875.08
2019-05-17T15:17:27.590Z,94879.83
2019-05-17T15:19:54.958Z,94874.98
2019-05-17T15:22:22.289Z,94872.54
2019-05-17T15:24:49.644Z,94870.13
2019-05-17T15:27:17.000Z,94869.07
2019-05-17T15:29:44.055Z,94871.20
2019-05-17T15:32:11.422Z,94865.16
2019-05-17T15:34:38.496Z,94871.03
2019-05-17T15:37:05.519Z,94867.89
2019-05-17T15:39:32.575Z,94864.16
2019-05-17T15:41:59.613Z,94866.05
2019-05-17T15:44:27.201Z,94865.25
2019-05-17T15:46:54.615Z,94862.56
2019-05-17T15:49:21.666Z,94858.83
2019-05-17T15:51:48.708Z,94859.32
2019-05-17T15:54:15.828Z,94863.46
2019-05-17T15:56:43.217Z,94857.05
2019-05-17T15:59:10.506Z,94857.05
2019-05-17T16:01:37.846Z,94855.45
2019-05-17T16:04:05.182Z,94858.38
2019-05-17T16:06:32.225Z,94862.63
2019-05-17T16:08:59.528Z,94867.38
2019-05-17T16:11:26.808Z,94870.84
2019-05-17T16:13:54.091Z,94868.53
2019-05-17T16:16:21.134Z,94872.52
2019-05-17T16:18:48.453Z,94877.55
2019-05-17T16:21:15.849Z,94875.64
2019-05-17T16:23:44.474Z,94876.05
2019-05-17T16:29:01.159Z,94869.69
2019-05-17T16:31:30.661Z,94872.02
2019-05-17T16:34:03.291Z,94886.87
2019-05-17T16:36:30.525Z,94895.00
2019-05-17T16:39:00.779Z,94897.36
2019-05-17T16:41:30.659Z,94902.33
2019-05-17T16:43:58.843Z,94906.17
2019-05-17T16:46:33.866Z,94908.70
2019-05-17T16:54:20.225Z,94934.25
2019-05-17T16:57:05.899Z,94931.69
2019-05-17T16:59:34.087Z,94933.14
2019-05-17T17:02:08.375Z,94938.94
2019-05-17T17:04:37.597Z,94935.95
2019-05-17T17:09:53.306Z,94937.36
2019-05-17T17:12:22.755Z,94944.48
2019-05-17T17:14:51.340Z,94947.72
2019-05-17T17:17:31.652Z,94942.75
2019-05-17T17:33:24.744Z,94947.52
2019-05-17T17:35:52.967Z,94950.15
2019-05-17T17:38:30.243Z,94954.96
2019-05-17T17:41:02.719Z,94944.38
2019-05-17T17:43:34.884Z,94945.34
2019-05-17T17:46:04.104Z,94945.80
2019-05-17T17:48:50.372Z,94943.45
2019-05-17T17:59:34.973Z,94949.50
2019-05-17T18:02:14.225Z,94945.04
2019-05-17T18:04:42.526Z,94952.86
2019-05-17T18:07:11.161Z,94952.81
2019-05-17T18:09:42.098Z,94950.07
2019-05-17T18:12:13.384Z,94947.88
2019-05-17T18:17:38.772Z,94940.73
2019-05-17T18:22:35.184Z,94951.47
2019-05-17T18:27:48.625Z,94951.77
2019-05-17T18:30:19.874Z,94953.67
2019-05-17T18:32:50.288Z,94959.72
2019-05-17T18:38:00.984Z,94959.73
2019-05-17T18:43:01.324Z,94959.20
2019-05-17T18:45:28.837Z,94961.22
2019-05-17T18:48:11.988Z,94959.19
2019-05-17T19:01:16.506Z,94971.36
2019-05-17T19:03:58.352Z,94969.45
2019-05-17T19:06:27.856Z,94971.41
2019-05-17T19:08:56.957Z,94976.21
2019-05-17T19:13:59.596Z,94978.06
2019-05-17T19:16:28.811Z,94985.84
2019-05-17T19:19:02.066Z,94981.41
2019-05-17T19:21:31.291Z,94979.80
2019-05-17T19:23:59.547Z,94977.80
2019-05-17T19:26:26.821Z,94978.64
2019-05-17T19:28:54.063Z,94979.39
2019-05-17T19:33:59.620Z,94986.69
2019-05-17T19:36:26.781Z,94988.20
2019-05-17T19:38:55.959Z,94993.36
2019-05-17T19:46:43.720Z,95003.00
2019-05-17T19:49:27.271Z,94997.78
2019-05-17T19:54:28.602Z,95006.67
2019-05-17T19:56:58.016Z,95008.66
2019-05-17T19:59:32.249Z,95003.72
2019-05-17T20:02:00.705Z,95010.27
2019-05-17T20:04:30.210Z,95009.88
2019-05-17T20:09:48.473Z,95007.87
2019-05-17T20:12:18.083Z,95009.69
2019-05-17T20:14:46.560Z,95005.25
2019-05-17T20:17:14.779Z,95002.42
2019-05-17T20:19:42.112Z,95003.83
2019-05-17T20:27:44.240Z,95004.72
2019-05-17T20:30:12.401Z,95000.83
2019-05-17T20:32:41.873Z,95003.72
2019-05-17T20:35:23.186Z,95005.60
2019-05-17T20:37:50.451Z,95000.84
2019-05-17T20:40:18.382Z,95007.27
2019-05-17T20:42:45.961Z,95004.95
2019-05-17T20:45:13.620Z,95006.86
2019-05-17T20:47:41.061Z,95004.74
2019-05-17T20:50:08.822Z,95003.43
2019-05-17T20:52:36.454Z,95002.95
2019-05-17T20:55:04.974Z,95002.06
2019-05-17T20:57:34.218Z,95006.61
2019-05-17T21:00:02.745Z,95017.81
2019-05-17T21:02:32.604Z,95041.31
2019-05-17T21:05:08.645Z,95043.34
2019-05-17T21:07:40.697Z,95039.20
2019-05-17T21:10:11.419Z,95037.77
2019-05-17T21:12:38.878Z,95038.26
2019-05-17T21:15:06.054Z,95048.01
2019-05-17T21:17:33.610Z,95049.68
2019-05-17T21:20:01.801Z,95048.75
2019-05-17T21:22:29.428Z,95051.17
2019-05-17T21:24:56.626Z,95049.65
2019-05-17T21:27:25.055Z,95054.78
2019-05-17T21:29:52.237Z,95049.38
2019-05-17T21:32:20.434Z,95049.05
2019-05-17T21:34:55.025Z,95047.83
2019-05-17T21:37:22.206Z,95048.92
2019-05-17T21:39:50.638Z,95047.41
2019-05-17T21:42:17.855Z,95040.34
2019-05-17T21:44:46.267Z,95040.63
2019-05-17T21:47:14.050Z,95045.80
2019-05-17T21:49:41.572Z,95047.11
2019-05-17T21:52:09.360Z,95041.27
2019-05-17T21:54:36.824Z,95042.48
2019-05-17T21:57:04.601Z,95048.54
2019-05-17T21:59:31.784Z,95045.02
2019-05-17T22:02:00.562Z,95050.48
2019-05-17T22:09:37.060Z,95047.89
2019-05-17T22:12:05.504Z,95050.69
2019-05-17T22:14:37.063Z,95049.07
2019-05-17T22:17:04.252Z,95055.94
2019-05-17T22:22:05.389Z,95047.63
2019-05-17T22:24:36.774Z,95051.66
2019-05-17T22:27:08.273Z,95051.45
2019-05-17T22:34:46.517Z,95045.02
2019-05-17T22:40:19.525Z,95049.73
2019-05-17T22:42:57.020Z,95052.77
2019-05-17T22:48:08.743Z,95043.70
2019-05-17T22:50:38.234Z,95040.17
2019-05-17T22:53:07.737Z,95039.47
2019-05-17T22:55:38.923Z,95035.12
2019-05-17T23:00:38.455Z,95025.14
2019-05-17T23:03:18.465Z,95024.93
2019-05-17T23:05:45.514Z,95020.30
2019-05-17T23:08:12.684Z,95018.88
2019-05-17T23:10:40.001Z,95017.57
2019-05-17T23:13:07.280Z,95014.66
2019-05-17T23:15:34.361Z,95014.16
2019-05-17T23:18:08.629Z,95014.47
2019-05-17T23:23:15.524Z,95016.45
2019-05-17T23:25:42.836Z,95016.65
2019-05-17T23:28:10.134Z,95012.02
2019-05-17T23:30:37.591Z,95012.56
2019-05-17T23:33:04.630Z,95010.54
2019-05-17T23:35:36.811Z,95009.02
2019-05-17T23:38:04.179Z,95007.40
2019-05-17T23:40:31.623Z,95008.02
2019-05-17T23:42:58.912Z,95007.81
2019-05-17T23:45:25.970Z,95004.01
2019-05-17T23:50:36.863Z,95010.65
2019-05-17T23:53:03.907Z,95005.92
2019-05-17T23:55:31.218Z,95004.12
2019-05-17T23:57:58.508Z,95001.11
